sensor_id;sensor_type;location;lat;lon;timestamp;temperature;humidity
8872;DHT22;4472;52.092;9.820;2023-04-30T00:00:44;5.40;99.90
8872;DHT22;4472;52.092;9.820;2023-04-30T00:03:31;5.30;99.90
8872;DHT22;4472;52.092;9.820;2023-04-30T00:06:18;5.30;99.90
8872;DHT22;4472;52.092;9.820;2023-04-30T00:09:06;5.30;99.90
8872;DHT22;4472;52.092;9.820;2023-04-30T00:11:53;5.30;99.90
8872;DHT22;4472;52.092;9.820;2023-04-30T00:14:41;5.30;99.90
8872;DHT22;4472;52.092;9.820;2023-04-30T00:17:28;5.20;99.90
8872;DHT22;4472;52.092;9.820;2023-04-30T00:25:51;5.20;99.90
8872;DHT22;4472;52.092;9.820;2023-04-30T00:28:38;5.10;99.90
8872;DHT22;4472;52.092;9.820;2023-04-30T00:31:25;5.10;99.90
8872;DHT22;4472;52.092;9.820;2023-04-30T00:34:13;5.60;99.90
8872;DHT22;4472;52.092;9.820;2023-04-30T00:39:47;5.10;99.90
8872;DHT22;4472;52.092;9.820;2023-04-30T00:42:36;4.90;99.90
8872;DHT22;4472;52.092;9.820;2023-04-30T01:13:28;4.50;99.90
8872;DHT22;4472;52.092;9.820;2023-04-30T01:19:26;4.30;99.90
8872;DHT22;4472;52.092;9.820;2023-04-30T01:22:29;4.30;99.90
8872;DHT22;4472;52.092;9.820;2023-04-30T01:25:35;4.20;99.90
8872;DHT22;4472;52.092;9.820;2023-04-30T01:28:31;4.20;99.90
8872;DHT22;4472;52.092;9.820;2023-04-30T01:31:23;4.10;99.90
8872;DHT22;4472;52.092;9.820;2023-04-30T01:37:09;4.10;99.90
8872;DHT22;4472;52.092;9.820;2023-04-30T01:40:11;4.00;99.90
8872;DHT22;4472;52.092;9.820;2023-04-30T01:43:04;3.90;99.90
8872;DHT22;4472;52.092;9.820;2023-04-30T01:46:02;4.00;99.90
8872;DHT22;4472;52.092;9.820;2023-04-30T01:48:57;3.90;99.90
8872;DHT22;4472;52.092;9.820;2023-04-30T01:54:51;3.80;99.90
8872;DHT22;4472;52.092;9.820;2023-04-30T01:57:42;3.80;99.90
8872;DHT22;4472;52.092;9.820;2023-04-30T02:00:30;3.80;99.90
8872;DHT22;4472;52.092;9.820;2023-04-30T02:03:19;3.80;99.90
8872;DHT22;4472;52.092;9.820;2023-04-30T02:06:06;3.80;99.90
8872;DHT22;4472;52.092;9.820;2023-04-30T02:08:53;3.80;99.90
8872;DHT22;4472;52.092;9.820;2023-04-30T02:11:41;3.70;99.90
8872;DHT22;4472;52.092;9.820;2023-04-30T02:14:30;3.70;99.90
8872;DHT22;4472;52.092;9.820;2023-04-30T02:17:17;3.70;99.90
8872;DHT22;4472;52.092;9.820;2023-04-30T02:20:07;3.70;99.90
8872;DHT22;4472;52.092;9.820;2023-04-30T02:28:29;3.60;99.90
8872;DHT22;4472;52.092;9.820;2023-04-30T02:31:16;3.60;99.90
8872;DHT22;4472;52.092;9.820;2023-04-30T02:39:40;3.50;99.90
8872;DHT22;4472;52.092;9.820;2023-04-30T02:45:14;3.50;99.90
8872;DHT22;4472;52.092;9.820;2023-04-30T02:50:49;4.10;99.90
8872;DHT22;4472;52.092;9.820;2023-04-30T02:53:37;3.50;99.90
8872;DHT22;4472;52.092;9.820;2023-04-30T02:56:25;3.40;99.90
8872;DHT22;4472;52.092;9.820;2023-04-30T02:59:12;3.30;99.90
8872;DHT22;4472;52.092;9.820;2023-04-30T03:01:59;3.30;99.90
8872;DHT22;4472;52.092;9.820;2023-04-30T03:04:46;3.10;99.90
8872;DHT22;4472;52.092;9.820;2023-04-30T03:07:34;3.30;99.90
8872;DHT22;4472;52.092;9.820;2023-04-30T03:10:22;3.20;99.90
8872;DHT22;4472;52.092;9.820;2023-04-30T03:13:09;3.20;99.90
8872;DHT22;4472;52.092;9.820;2023-04-30T03:15:57;3.20;99.90
8872;DHT22;4472;52.092;9.820;2023-04-30T03:18:45;3.20;99.90
8872;DHT22;4472;52.092;9.820;2023-04-30T03:21:32;3.10;99.90
8872;DHT22;4472;52.092;9.820;2023-04-30T03:24:19;3.10;99.90
8872;DHT22;4472;52.092;9.820;2023-04-30T03:27:08;3.00;99.90
8872;DHT22;4472;52.092;9.820;2023-04-30T03:29:55;3.00;99.90
8872;DHT22;4472;52.092;9.820;2023-04-30T03:32:42;3.00;99.90
8872;DHT22;4472;52.092;9.820;2023-04-30T03:35:29;2.90;99.90
8872;DHT22;4472;52.092;9.820;2023-04-30T03:38:17;2.90;99.90
8872;DHT22;4472;52.092;9.820;2023-04-30T03:41:04;2.90;99.90
8872;DHT22;4472;52.092;9.820;2023-04-30T03:43:55;2.70;99.90
8872;DHT22;4472;52.092;9.820;2023-04-30T03:46:43;2.90;99.90
8872;DHT22;4472;52.092;9.820;2023-04-30T03:49:30;2.90;99.90
8872;DHT22;4472;52.092;9.820;2023-04-30T03:52:17;2.90;99.90
8872;DHT22;4472;52.092;9.820;2023-04-30T03:55:05;2.90;99.90
8872;DHT22;4472;52.092;9.820;2023-04-30T03:57:52;2.90;99.90
8872;DHT22;4472;52.092;9.820;2023-04-30T04:00:41;2.90;99.90
8872;DHT22;4472;52.092;9.820;2023-04-30T04:03:30;2.90;99.90
8872;DHT22;4472;52.092;9.820;2023-04-30T04:06:19;2.90;99.90
8872;DHT22;4472;52.092;9.820;2023-04-30T04:09:07;2.90;99.90
8872;DHT22;4472;52.092;9.820;2023-04-30T04:11:54;2.90;99.90
8872;DHT22;4472;52.092;9.820;2023-04-30T04:14:42;2.90;99.90
8872;DHT22;4472;52.092;9.820;2023-04-30T04:17:31;2.90;99.90
8872;DHT22;4472;52.092;9.820;2023-04-30T04:20:18;2.90;99.90
8872;DHT22;4472;52.092;9.820;2023-04-30T04:23:06;2.90;99.90
8872;DHT22;4472;52.092;9.820;2023-04-30T04:25:53;2.90;99.90
8872;DHT22;4472;52.092;9.820;2023-04-30T04:28:40;2.90;99.90
8872;DHT22;4472;52.092;9.820;2023-04-30T04:31:27;3.00;99.90
8872;DHT22;4472;52.092;9.820;2023-04-30T04:34:15;3.00;99.90
8872;DHT22;4472;52.092;9.820;2023-04-30T04:37:04;3.10;99.90
8872;DHT22;4472;52.092;9.820;2023-04-30T04:39:51;4.30;99.90
8872;DHT22;4472;52.092;9.820;2023-04-30T04:42:38;3.20;99.90
8872;DHT22;4472;52.092;9.820;2023-04-30T04:45:26;3.20;99.90
8872;DHT22;4472;52.092;9.820;2023-04-30T04:48:13;3.20;99.90
8872;DHT22;4472;52.092;9.820;2023-04-30T04:51:02;3.20;99.90
8872;DHT22;4472;52.092;9.820;2023-04-30T04:53:49;3.30;99.90
8872;DHT22;4472;52.092;9.820;2023-04-30T04:56:36;3.30;99.90
8872;DHT22;4472;52.092;9.820;2023-04-30T04:59:24;3.40;99.90
8872;DHT22;4472;52.092;9.820;2023-04-30T05:02:11;3.40;99.90
8872;DHT22;4472;52.092;9.820;2023-04-30T05:04:58;3.50;99.90
8872;DHT22;4472;52.092;9.820;2023-04-30T05:07:47;3.60;99.90
8872;DHT22;4472;52.092;9.820;2023-04-30T05:10:37;3.60;99.90
8872;DHT22;4472;52.092;9.820;2023-04-30T05:13:24;3.70;99.90
8872;DHT22;4472;52.092;9.820;2023-04-30T05:16:11;3.80;99.90
8872;DHT22;4472;52.092;9.820;2023-04-30T05:18:58;3.90;99.90
8872;DHT22;4472;52.092;9.820;2023-04-30T05:21:45;4.00;99.90
8872;DHT22;4472;52.092;9.820;2023-04-30T05:24:34;4.10;99.90
8872;DHT22;4472;52.092;9.820;2023-04-30T05:27:21;4.10;99.90
8872;DHT22;4472;52.092;9.820;2023-04-30T05:30:09;4.30;99.90
8872;DHT22;4472;52.092;9.820;2023-04-30T05:32:56;4.40;99.90
8872;DHT22;4472;52.092;9.820;2023-04-30T05:35:43;4.50;99.90
8872;DHT22;4472;52.092;9.820;2023-04-30T05:38:30;4.70;99.90
8872;DHT22;4472;52.092;9.820;2023-04-30T05:41:19;4.80;99.90
8872;DHT22;4472;52.092;9.820;2023-04-30T05:44:07;5.20;99.90
8872;DHT22;4472;52.092;9.820;2023-04-30T05:46:54;5.10;99.90
8872;DHT22;4472;52.092;9.820;2023-04-30T05:49:41;5.20;99.90
8872;DHT22;4472;52.092;9.820;2023-04-30T05:52:28;5.40;99.90
8872;DHT22;4472;52.092;9.820;2023-04-30T05:55:15;5.50;99.90
8872;DHT22;4472;52.092;9.820;2023-04-30T05:58:04;5.70;99.90
8872;DHT22;4472;52.092;9.820;2023-04-30T06:00:51;5.80;99.90
8872;DHT22;4472;52.092;9.820;2023-04-30T06:03:39;6.00;99.90
8872;DHT22;4472;52.092;9.820;2023-04-30T06:06:26;6.10;99.90
8872;DHT22;4472;52.092;9.820;2023-04-30T06:09:13;6.20;99.90
8872;DHT22;4472;52.092;9.820;2023-04-30T06:12:01;6.40;99.90
8872;DHT22;4472;52.092;9.820;2023-04-30T06:14:50;6.80;99.90
8872;DHT22;4472;52.092;9.820;2023-04-30T06:17:38;6.70;99.90
8872;DHT22;4472;52.092;9.820;2023-04-30T06:20:25;6.90;99.90
8872;DHT22;4472;52.092;9.820;2023-04-30T06:23:12;7.00;99.90
8872;DHT22;4472;52.092;9.820;2023-04-30T06:31:36;7.50;99.90
8872;DHT22;4472;52.092;9.820;2023-04-30T06:34:23;7.80;99.90
8872;DHT22;4472;52.092;9.820;2023-04-30T06:37:10;7.90;99.90
8872;DHT22;4472;52.092;9.820;2023-04-30T06:39:57;8.00;99.90
8872;DHT22;4472;52.092;9.820;2023-04-30T06:51:09;8.50;99.90
8872;DHT22;4472;52.092;9.820;2023-04-30T06:53:56;8.50;99.90
8872;DHT22;4472;52.092;9.820;2023-04-30T06:56:43;8.80;99.90
8872;DHT22;4472;52.092;9.820;2023-04-30T06:59:30;8.90;99.90
8872;DHT22;4472;52.092;9.820;2023-04-30T07:02:17;8.90;99.90
8872;DHT22;4472;52.092;9.820;2023-04-30T07:05:06;8.90;99.90
8872;DHT22;4472;52.092;9.820;2023-04-30T07:07:53;9.00;99.90
8872;DHT22;4472;52.092;9.820;2023-04-30T07:10:41;9.20;99.90
8872;DHT22;4472;52.092;9.820;2023-04-30T07:13:28;9.20;99.90
8872;DHT22;4472;52.092;9.820;2023-04-30T07:16:15;9.20;99.90
8872;DHT22;4472;52.092;9.820;2023-04-30T07:19:02;9.40;99.90
8872;DHT22;4472;52.092;9.820;2023-04-30T07:21:51;9.60;99.90
8872;DHT22;4472;52.092;9.820;2023-04-30T07:24:38;9.70;99.90
8872;DHT22;4472;52.092;9.820;2023-04-30T07:27:25;9.80;99.90
8872;DHT22;4472;52.092;9.820;2023-04-30T07:30:13;10.00;99.90
8872;DHT22;4472;52.092;9.820;2023-04-30T07:33:00;10.10;99.90
8872;DHT22;4472;52.092;9.820;2023-04-30T07:35:47;10.30;99.90
8872;DHT22;4472;52.092;9.820;2023-04-30T07:38:36;10.30;99.90
8872;DHT22;4472;52.092;9.820;2023-04-30T07:41:23;10.40;99.90
8872;DHT22;4472;52.092;9.820;2023-04-30T07:44:10;10.50;99.90
8872;DHT22;4472;52.092;9.820;2023-04-30T07:46:58;10.50;99.90
8872;DHT22;4472;52.092;9.820;2023-04-30T07:49:45;10.60;99.90
8872;DHT22;4472;52.092;9.820;2023-04-30T07:52:32;10.60;99.90
8872;DHT22;4472;52.092;9.820;2023-04-30T07:55:21;10.80;99.90
8872;DHT22;4472;52.092;9.820;2023-04-30T07:58:08;10.10;99.90
8872;DHT22;4472;52.092;9.820;2023-04-30T08:00:55;11.10;98.60
8872;DHT22;4472;52.092;9.820;2023-04-30T08:03:42;10.80;97.30
8872;DHT22;4472;52.092;9.820;2023-04-30T08:06:30;10.90;97.70
8872;DHT22;4472;52.092;9.820;2023-04-30T08:09:20;10.70;98.40
8872;DHT22;4472;52.092;9.820;2023-04-30T08:12:09;10.80;99.20
8872;DHT22;4472;52.092;9.820;2023-04-30T08:15:00;10.90;98.80
8872;DHT22;4472;52.092;9.820;2023-04-30T08:17:48;10.90;99.50
8872;DHT22;4472;52.092;9.820;2023-04-30T08:20:35;11.10;99.30
8872;DHT22;4472;52.092;9.820;2023-04-30T08:23:22;11.10;97.70
8872;DHT22;4472;52.092;9.820;2023-04-30T08:26:09;11.00;96.90
8872;DHT22;4472;52.092;9.820;2023-04-30T08:28:58;11.10;97.80
8872;DHT22;4472;52.092;9.820;2023-04-30T08:31:45;11.10;98.70
8872;DHT22;4472;52.092;9.820;2023-04-30T08:34:32;11.20;99.20
8872;DHT22;4472;52.092;9.820;2023-04-30T08:37:19;11.30;99.60
8872;DHT22;4472;52.092;9.820;2023-04-30T08:40:08;11.40;99.10
8872;DHT22;4472;52.092;9.820;2023-04-30T08:48:39;11.30;99.90
8872;DHT22;4472;52.092;9.820;2023-04-30T08:51:29;11.20;99.20
8872;DHT22;4472;52.092;9.820;2023-04-30T08:54:18;11.20;99.30
8872;DHT22;4472;52.092;9.820;2023-04-30T08:57:05;11.20;99.90
8872;DHT22;4472;52.092;9.820;2023-04-30T08:59:55;11.50;99.90
8872;DHT22;4472;52.092;9.820;2023-04-30T09:02:44;11.40;98.30
8872;DHT22;4472;52.092;9.820;2023-04-30T09:05:32;11.40;99.90
8872;DHT22;4472;52.092;9.820;2023-04-30T09:14:23;11.30;99.90
8872;DHT22;4472;52.092;9.820;2023-04-30T09:25:52;11.60;99.90
8872;DHT22;4472;52.092;9.820;2023-04-30T09:28:53;11.80;96.90
8872;DHT22;4472;52.092;9.820;2023-04-30T09:31:43;11.80;98.60
8872;DHT22;4472;52.092;9.820;2023-04-30T09:34:33;11.80;99.90
8872;DHT22;4472;52.092;9.820;2023-04-30T09:40:31;12.30;96.30
8872;DHT22;4472;52.092;9.820;2023-04-30T09:43:19;12.30;96.30
8872;DHT22;4472;52.092;9.820;2023-04-30T09:46:06;12.10;96.60
8872;DHT22;4472;52.092;9.820;2023-04-30T09:48:58;12.10;97.50
8872;DHT22;4472;52.092;9.820;2023-04-30T09:51:53;12.20;97.10
8872;DHT22;4472;52.092;9.820;2023-04-30T09:54:43;12.50;97.60
8872;DHT22;4472;52.092;9.820;2023-04-30T09:57:31;12.80;97.60
8872;DHT22;4472;52.092;9.820;2023-04-30T10:00:21;12.80;95.90
8872;DHT22;4472;52.092;9.820;2023-04-30T10:03:10;12.70;96.10
8872;DHT22;4472;52.092;9.820;2023-04-30T10:05:58;12.60;95.00
8872;DHT22;4472;52.092;9.820;2023-04-30T10:08:47;12.60;95.80
8872;DHT22;4472;52.092;9.820;2023-04-30T10:11:36;12.90;97.60
8872;DHT22;4472;52.092;9.820;2023-04-30T10:14:25;12.80;96.80
8872;DHT22;4472;52.092;9.820;2023-04-30T10:17:16;12.90;96.70
8872;DHT22;4472;52.092;9.820;2023-04-30T10:20:08;13.10;96.20
8872;DHT22;4472;52.092;9.820;2023-04-30T10:22:55;13.00;94.90
8872;DHT22;4472;52.092;9.820;2023-04-30T10:25:43;13.10;96.10
8872;DHT22;4472;52.092;9.820;2023-04-30T10:28:32;13.30;96.20
8872;DHT22;4472;52.092;9.820;2023-04-30T10:31:20;13.30;94.60
8872;DHT22;4472;52.092;9.820;2023-04-30T10:34:16;13.50;94.60
8872;DHT22;4472;52.092;9.820;2023-04-30T10:37:08;13.60;95.60
8872;DHT22;4472;52.092;9.820;2023-04-30T10:39:57;13.50;93.80
8872;DHT22;4472;52.092;9.820;2023-04-30T10:42:46;13.40;94.70
8872;DHT22;4472;52.092;9.820;2023-04-30T10:45:36;13.60;95.00
8872;DHT22;4472;52.092;9.820;2023-04-30T10:48:23;13.60;94.40
8872;DHT22;4472;52.092;9.820;2023-04-30T10:51:12;13.70;93.70
8872;DHT22;4472;52.092;9.820;2023-04-30T10:54:00;13.60;94.00
8872;DHT22;4472;52.092;9.820;2023-04-30T10:56:47;13.40;93.20
8872;DHT22;4472;52.092;9.820;2023-04-30T10:59:34;13.60;91.90
8872;DHT22;4472;52.092;9.820;2023-04-30T11:02:23;13.60;92.80
8872;DHT22;4472;52.092;9.820;2023-04-30T11:05:34;13.60;91.80
8872;DHT22;4472;52.092;9.820;2023-04-30T11:08:31;13.60;93.40
8872;DHT22;4472;52.092;9.820;2023-04-30T11:11:19;13.50;91.30
8872;DHT22;4472;52.092;9.820;2023-04-30T11:14:06;13.50;90.90
8872;DHT22;4472;52.092;9.820;2023-04-30T11:16:54;13.50;91.40
8872;DHT22;4472;52.092;9.820;2023-04-30T11:19:49;13.60;92.50
8872;DHT22;4472;52.092;9.820;2023-04-30T11:22:37;13.80;90.90
8872;DHT22;4472;52.092;9.820;2023-04-30T11:25:25;14.00;92.00
8872;DHT22;4472;52.092;9.820;2023-04-30T11:28:17;14.00;91.00
8872;DHT22;4472;52.092;9.820;2023-04-30T11:31:04;14.20;91.20
8872;DHT22;4472;52.092;9.820;2023-04-30T11:33:54;14.20;90.90
8872;DHT22;4472;52.092;9.820;2023-04-30T11:36:43;14.20;88.10
8872;DHT22;4472;52.092;9.820;2023-04-30T11:39:33;14.00;87.60
8872;DHT22;4472;52.092;9.820;2023-04-30T11:42:21;14.00;86.00
8872;DHT22;4472;52.092;9.820;2023-04-30T11:45:09;14.00;86.70
8872;DHT22;4472;52.092;9.820;2023-04-30T11:47:56;13.90;87.10
8872;DHT22;4472;52.092;9.820;2023-04-30T11:50:44;13.70;85.30
8872;DHT22;4472;52.092;9.820;2023-04-30T11:53:32;13.60;89.60
8872;DHT22;4472;52.092;9.820;2023-04-30T11:56:20;13.70;90.30
8872;DHT22;4472;52.092;9.820;2023-04-30T11:59:09;13.70;88.00
8872;DHT22;4472;52.092;9.820;2023-04-30T12:01:57;13.70;90.00
8872;DHT22;4472;52.092;9.820;2023-04-30T12:04:44;13.90;89.60
8872;DHT22;4472;52.092;9.820;2023-04-30T12:07:33;14.00;90.00
8872;DHT22;4472;52.092;9.820;2023-04-30T12:10:22;14.00;87.30
8872;DHT22;4472;52.092;9.820;2023-04-30T12:13:13;14.00;89.10
8872;DHT22;4472;52.092;9.820;2023-04-30T12:16:01;13.80;90.70
8872;DHT22;4472;52.092;9.820;2023-04-30T12:18:48;14.10;92.30
8872;DHT22;4472;52.092;9.820;2023-04-30T12:21:37;14.10;90.70
8872;DHT22;4472;52.092;9.820;2023-04-30T12:24:26;14.40;90.20
8872;DHT22;4472;52.092;9.820;2023-04-30T12:27:15;14.40;90.50
8872;DHT22;4472;52.092;9.820;2023-04-30T12:30:04;14.30;89.00
8872;DHT22;4472;52.092;9.820;2023-04-30T12:32:56;14.30;90.80
8872;DHT22;4472;52.092;9.820;2023-04-30T12:35:43;14.40;90.30
8872;DHT22;4472;52.092;9.820;2023-04-30T12:38:30;14.40;91.00
8872;DHT22;4472;52.092;9.820;2023-04-30T12:41:18;14.50;90.30
8872;DHT22;4472;52.092;9.820;2023-04-30T12:44:21;14.80;89.90
8872;DHT22;4472;52.092;9.820;2023-04-30T12:47:09;14.70;87.80
8872;DHT22;4472;52.092;9.820;2023-04-30T12:49:56;14.70;85.00
8872;DHT22;4472;52.092;9.820;2023-04-30T12:52:43;14.80;86.40
8872;DHT22;4472;52.092;9.820;2023-04-30T12:55:31;14.50;84.80
8872;DHT22;4472;52.092;9.820;2023-04-30T12:58:19;14.50;84.50
8872;DHT22;4472;52.092;9.820;2023-04-30T13:01:11;14.50;86.30
8872;DHT22;4472;52.092;9.820;2023-04-30T13:03:58;14.50;84.50
8872;DHT22;4472;52.092;9.820;2023-04-30T13:06:46;14.60;85.00
8872;DHT22;4472;52.092;9.820;2023-04-30T13:09:34;14.60;85.80
8872;DHT22;4472;52.092;9.820;2023-04-30T13:12:21;14.60;87.00
8872;DHT22;4472;52.092;9.820;2023-04-30T13:15:09;14.70;86.20
8872;DHT22;4472;52.092;9.820;2023-04-30T13:17:57;14.60;85.00
8872;DHT22;4472;52.092;9.820;2023-04-30T13:20:44;14.80;85.30
8872;DHT22;4472;52.092;9.820;2023-04-30T13:23:32;14.70;85.50
8872;DHT22;4472;52.092;9.820;2023-04-30T13:26:19;14.70;85.00
8872;DHT22;4472;52.092;9.820;2023-04-30T13:29:07;14.70;85.20
8872;DHT22;4472;52.092;9.820;2023-04-30T13:31:55;15.00;83.80
8872;DHT22;4472;52.092;9.820;2023-04-30T13:34:43;14.90;84.40
8872;DHT22;4472;52.092;9.820;2023-04-30T13:37:30;15.00;83.60
8872;DHT22;4472;52.092;9.820;2023-04-30T13:40:18;14.90;80.10
8872;DHT22;4472;52.092;9.820;2023-04-30T13:43:05;15.00;79.30
8872;DHT22;4472;52.092;9.820;2023-04-30T13:45:52;14.90;78.40
8872;DHT22;4472;52.092;9.820;2023-04-30T13:48:39;14.90;80.60
8872;DHT22;4472;52.092;9.820;2023-04-30T13:51:28;14.80;81.80
8872;DHT22;4472;52.092;9.820;2023-04-30T13:54:16;15.00;83.40
8872;DHT22;4472;52.092;9.820;2023-04-30T13:57:03;15.20;84.50
8872;DHT22;4472;52.092;9.820;2023-04-30T13:59:53;15.20;82.90
8872;DHT22;4472;52.092;9.820;2023-04-30T14:02:40;15.10;82.80
8872;DHT22;4472;52.092;9.820;2023-04-30T14:05:27;15.20;79.80
8872;DHT22;4472;52.092;9.820;2023-04-30T14:08:16;15.10;79.00
8872;DHT22;4472;52.092;9.820;2023-04-30T14:11:03;15.00;80.60
8872;DHT22;4472;52.092;9.820;2023-04-30T14:13:50;15.00;83.20
8872;DHT22;4472;52.092;9.820;2023-04-30T14:16:38;15.10;82.90
8872;DHT22;4472;52.092;9.820;2023-04-30T14:19:26;15.20;83.10
8872;DHT22;4472;52.092;9.820;2023-04-30T14:22:13;15.40;81.60
8872;DHT22;4472;52.092;9.820;2023-04-30T14:53:05;15.20;84.70
8872;DHT22;4472;52.092;9.820;2023-04-30T14:58:43;15.20;84.10
8872;DHT22;4472;52.092;9.820;2023-04-30T15:01:30;15.30;74.20
8872;DHT22;4472;52.092;9.820;2023-04-30T15:04:17;15.30;73.00
8872;DHT22;4472;52.092;9.820;2023-04-30T15:07:04;15.30;70.70
8872;DHT22;4472;52.092;9.820;2023-04-30T15:09:51;15.40;70.20
8872;DHT22;4472;52.092;9.820;2023-04-30T15:12:38;15.20;69.90
8872;DHT22;4472;52.092;9.820;2023-04-30T15:15:27;15.30;68.30
8872;DHT22;4472;52.092;9.820;2023-04-30T15:18:14;15.20;69.40
8872;DHT22;4472;52.092;9.820;2023-04-30T15:21:01;15.30;70.40
8872;DHT22;4472;52.092;9.820;2023-04-30T15:23:49;15.30;71.00
8872;DHT22;4472;52.092;9.820;2023-04-30T15:26:36;15.30;67.90
8872;DHT22;4472;52.092;9.820;2023-04-30T15:29:23;15.30;67.90
8872;DHT22;4472;52.092;9.820;2023-04-30T15:32:12;15.20;67.30
8872;DHT22;4472;52.092;9.820;2023-04-30T15:34:59;15.40;67.80
8872;DHT22;4472;52.092;9.820;2023-04-30T15:37:46;15.30;68.00
8872;DHT22;4472;52.092;9.820;2023-04-30T15:40:34;15.20;68.40
8872;DHT22;4472;52.092;9.820;2023-04-30T15:43:22;15.50;69.40
8872;DHT22;4472;52.092;9.820;2023-04-30T15:46:09;15.30;66.50
8872;DHT22;4472;52.092;9.820;2023-04-30T15:49:00;15.30;68.20
8872;DHT22;4472;52.092;9.820;2023-04-30T15:51:49;15.20;65.90
8872;DHT22;4472;52.092;9.820;2023-04-30T15:54:36;15.20;65.60
8872;DHT22;4472;52.092;9.820;2023-04-30T15:57:23;15.20;67.50
8872;DHT22;4472;52.092;9.820;2023-04-30T16:00:11;15.20;68.70
8872;DHT22;4472;52.092;9.820;2023-04-30T16:02:59;15.20;66.00
8872;DHT22;4472;52.092;9.820;2023-04-30T16:05:48;15.10;66.90
8872;DHT22;4472;52.092;9.820;2023-04-30T16:08:35;15.10;66.00
8872;DHT22;4472;52.092;9.820;2023-04-30T16:11:22;15.10;66.90
8872;DHT22;4472;52.092;9.820;2023-04-30T16:14:10;15.10;66.50
8872;DHT22;4472;52.092;9.820;2023-04-30T16:16:57;15.30;66.90
8872;DHT22;4472;52.092;9.820;2023-04-30T16:19:44;15.20;66.50
8872;DHT22;4472;52.092;9.820;2023-04-30T16:22:33;15.10;65.80
8872;DHT22;4472;52.092;9.820;2023-04-30T16:25:20;15.10;66.30
8872;DHT22;4472;52.092;9.820;2023-04-30T16:28:07;15.10;66.10
8872;DHT22;4472;52.092;9.820;2023-04-30T16:30:55;15.30;64.40
8872;DHT22;4472;52.092;9.820;2023-04-30T16:33:42;15.10;63.80
8872;DHT22;4472;52.092;9.820;2023-04-30T16:36:29;15.10;64.50
8872;DHT22;4472;52.092;9.820;2023-04-30T16:39:18;15.10;65.40
8872;DHT22;4472;52.092;9.820;2023-04-30T16:42:06;15.20;64.70
8872;DHT22;4472;52.092;9.820;2023-04-30T16:44:53;15.10;65.70
8872;DHT22;4472;52.092;9.820;2023-04-30T16:47:40;14.90;64.90
8872;DHT22;4472;52.092;9.820;2023-04-30T16:50:27;15.00;65.40
8872;DHT22;4472;52.092;9.820;2023-04-30T16:53:14;15.00;65.70
8872;DHT22;4472;52.092;9.820;2023-04-30T16:56:03;15.00;66.80
8872;DHT22;4472;52.092;9.820;2023-04-30T16:58:50;15.00;66.10
8872;DHT22;4472;52.092;9.820;2023-04-30T17:01:37;15.10;65.80
8872;DHT22;4472;52.092;9.820;2023-04-30T17:04:25;14.80;65.40
8872;DHT22;4472;52.092;9.820;2023-04-30T17:07:12;14.80;65.30
8872;DHT22;4472;52.092;9.820;2023-04-30T17:09:59;14.70;64.10
8872;DHT22;4472;52.092;9.820;2023-04-30T17:12:47;14.70;65.20
8872;DHT22;4472;52.092;9.820;2023-04-30T17:15:34;14.80;66.00
8872;DHT22;4472;52.092;9.820;2023-04-30T17:18:22;14.60;65.80
8872;DHT22;4472;52.092;9.820;2023-04-30T17:21:09;14.70;66.40
8872;DHT22;4472;52.092;9.820;2023-04-30T17:23:56;14.50;67.70
8872;DHT22;4472;52.092;9.820;2023-04-30T17:26:43;14.40;68.70
8872;DHT22;4472;52.092;9.820;2023-04-30T17:29:32;14.40;67.50
8872;DHT22;4472;52.092;9.820;2023-04-30T17:32:19;14.40;68.20
8872;DHT22;4472;52.092;9.820;2023-04-30T17:35:06;14.30;67.30
8872;DHT22;4472;52.092;9.820;2023-04-30T17:37:53;14.40;67.60
8872;DHT22;4472;52.092;9.820;2023-04-30T17:40:41;14.40;68.70
8872;DHT22;4472;52.092;9.820;2023-04-30T17:43:28;14.30;70.20
8872;DHT22;4472;52.092;9.820;2023-04-30T17:46:17;14.10;69.00
8872;DHT22;4472;52.092;9.820;2023-04-30T17:49:04;14.00;69.70
8872;DHT22;4472;52.092;9.820;2023-04-30T17:52:05;14.00;69.10
8872;DHT22;4472;52.092;9.820;2023-04-30T17:54:52;13.90;69.30
8872;DHT22;4472;52.092;9.820;2023-04-30T17:57:39;13.80;72.40
8872;DHT22;4472;52.092;9.820;2023-04-30T18:00:27;13.70;72.40
8872;DHT22;4472;52.092;9.820;2023-04-30T18:03:15;13.60;72.50
8872;DHT22;4472;52.092;9.820;2023-04-30T18:06:02;13.50;74.20
8872;DHT22;4472;52.092;9.820;2023-04-30T18:08:50;13.40;73.50
8872;DHT22;4472;52.092;9.820;2023-04-30T18:11:38;13.40;74.00
8872;DHT22;4472;52.092;9.820;2023-04-30T18:14:25;13.30;72.70
8872;DHT22;4472;52.092;9.820;2023-04-30T18:17:13;13.10;74.90
8872;DHT22;4472;52.092;9.820;2023-04-30T18:20:03;13.20;73.70
8872;DHT22;4472;52.092;9.820;2023-04-30T18:22:50;12.90;74.00
8872;DHT22;4472;52.092;9.820;2023-04-30T18:25:37;12.90;75.90
8872;DHT22;4472;52.092;9.820;2023-04-30T18:28:25;12.70;78.00
8872;DHT22;4472;52.092;9.820;2023-04-30T18:31:12;12.50;81.90
8872;DHT22;4472;52.092;9.820;2023-04-30T18:34:00;12.30;83.00
8872;DHT22;4472;52.092;9.820;2023-04-30T18:36:48;11.90;84.90
8872;DHT22;4472;52.092;9.820;2023-04-30T18:39:36;11.70;86.10
8872;DHT22;4472;52.092;9.820;2023-04-30T18:42:42;11.50;87.30
8872;DHT22;4472;52.092;9.820;2023-04-30T18:45:29;11.30;88.70
8872;DHT22;4472;52.092;9.820;2023-04-30T18:48:17;11.20;90.00
8872;DHT22;4472;52.092;9.820;2023-04-30T18:51:07;11.00;90.20
8872;DHT22;4472;52.092;9.820;2023-04-30T18:53:56;11.00;90.90
8872;DHT22;4472;52.092;9.820;2023-04-30T18:56:43;10.60;91.50
8872;DHT22;4472;52.092;9.820;2023-04-30T18:59:30;10.40;92.00
8872;DHT22;4472;52.092;9.820;2023-04-30T19:02:17;10.30;92.60
8872;DHT22;4472;52.092;9.820;2023-04-30T19:05:06;10.10;93.00
8872;DHT22;4472;52.092;9.820;2023-04-30T19:07:53;9.90;94.00
8872;DHT22;4472;52.092;9.820;2023-04-30T19:10:42;9.90;94.30
8872;DHT22;4472;52.092;9.820;2023-04-30T19:13:29;9.80;94.90
8872;DHT22;4472;52.092;9.820;2023-04-30T19:16:16;9.70;95.80
8872;DHT22;4472;52.092;9.820;2023-04-30T19:19:03;9.60;96.50
8872;DHT22;4472;52.092;9.820;2023-04-30T19:21:51;9.40;97.30
8872;DHT22;4472;52.092;9.820;2023-04-30T19:24:39;9.30;98.00
8872;DHT22;4472;52.092;9.820;2023-04-30T19:27:27;9.20;98.30
8872;DHT22;4472;52.092;9.820;2023-04-30T19:30:14;9.10;98.70
8872;DHT22;4472;52.092;9.820;2023-04-30T19:33:01;9.00;99.00
8872;DHT22;4472;52.092;9.820;2023-04-30T19:35:50;9.00;99.50
8872;DHT22;4472;52.092;9.820;2023-04-30T19:38:38;8.90;99.00
8872;DHT22;4472;52.092;9.820;2023-04-30T19:41:26;8.90;99.40
8872;DHT22;4472;52.092;9.820;2023-04-30T19:44:16;8.90;99.90
8872;DHT22;4472;52.092;9.820;2023-04-30T19:47:04;8.90;99.90
8872;DHT22;4472;52.092;9.820;2023-04-30T19:49:51;9.00;99.90
8872;DHT22;4472;52.092;9.820;2023-04-30T19:52:39;8.80;99.90
8872;DHT22;4472;52.092;9.820;2023-04-30T19:55:26;8.90;99.90
8872;DHT22;4472;52.092;9.820;2023-04-30T19:58:14;8.60;99.90
8872;DHT22;4472;52.092;9.820;2023-04-30T20:01:02;8.60;99.90
8872;DHT22;4472;52.092;9.820;2023-04-30T20:03:50;8.60;99.90
8872;DHT22;4472;52.092;9.820;2023-04-30T20:06:37;8.50;99.90
8872;DHT22;4472;52.092;9.820;2023-04-30T20:09:24;8.40;99.90
8872;DHT22;4472;52.092;9.820;2023-04-30T20:12:11;8.40;99.90
8872;DHT22;4472;52.092;9.820;2023-04-30T20:14:59;7.70;99.90
8872;DHT22;4472;52.092;9.820;2023-04-30T20:17:47;8.30;99.90
8872;DHT22;4472;52.092;9.820;2023-04-30T20:23:22;8.10;97.20
8872;DHT22;4472;52.092;9.820;2023-04-30T20:26:09;8.10;97.80
8872;DHT22;4472;52.092;9.820;2023-04-30T20:28:56;8.00;98.00
8872;DHT22;4472;52.092;9.820;2023-04-30T20:31:45;7.90;98.30
8872;DHT22;4472;52.092;9.820;2023-04-30T20:34:33;7.80;98.90
8872;DHT22;4472;52.092;9.820;2023-04-30T20:37:21;7.80;99.60
8872;DHT22;4472;52.092;9.820;2023-04-30T20:40:09;7.70;99.90